createdAt,value
2019-02-17T00:00:41.228Z,0
2019-02-17T00:01:49.300Z,0
2019-02-17T00:02:57.332Z,0
2019-02-17T00:04:05.383Z,0
2019-02-17T00:05:13.472Z,0
2019-02-17T00:06:21.480Z,0
2019-02-17T00:07:29.539Z,0
2019-02-17T00:08:37.596Z,0
2019-02-17T00:09:45.647Z,0
2019-02-17T00:10:53.687Z,0
2019-02-17T00:12:01.740Z,0
2019-02-17T00:13:09.803Z,0
2019-02-17T00:14:17.849Z,0
2019-02-17T00:15:25.894Z,0
2019-02-17T00:16:33.948Z,0
2019-02-17T00:17:41.997Z,0
2019-02-17T00:18:50.058Z,0
2019-02-17T00:19:58.114Z,0
2019-02-17T00:21:06.171Z,0
2019-02-17T00:22:14.261Z,0
2019-02-17T00:23:22.264Z,0
2019-02-17T00:24:30.334Z,0
2019-02-17T00:25:38.382Z,0
2019-02-17T00:26:46.440Z,0
2019-02-17T00:27:54.490Z,0
2019-02-17T00:29:02.559Z,0
2019-02-17T00:30:10.593Z,0
2019-02-17T00:31:18.643Z,0
2019-02-17T00:32:26.792Z,0
2019-02-17T00:33:34.737Z,0
2019-02-17T00:34:42.804Z,0
2019-02-17T00:35:50.860Z,0
2019-02-17T00:36:58.948Z,0
2019-02-17T00:38:06.954Z,0
2019-02-17T00:39:15.014Z,0
2019-02-17T00:40:23.067Z,0
2019-02-17T00:41:31.124Z,0
2019-02-17T00:42:39.185Z,0
2019-02-17T00:43:47.215Z,0
2019-02-17T00:44:55.297Z,0
2019-02-17T00:46:03.320Z,0
2019-02-17T00:47:11.344Z,0
2019-02-17T00:48:19.429Z,0
2019-02-17T00:49:27.485Z,0
2019-02-17T00:50:35.535Z,0
2019-02-17T00:51:43.817Z,0
2019-02-17T00:52:51.665Z,0
2019-02-17T00:53:59.764Z,0
2019-02-17T00:55:07.743Z,0
2019-02-17T00:56:15.800Z,0
2019-02-17T00:57:23.833Z,0
2019-02-17T00:58:31.878Z,0
2019-02-17T00:59:39.943Z,0
2019-02-17T01:00:48.026Z,0
2019-02-17T01:01:56.061Z,0
2019-02-17T01:03:04.112Z,0
2019-02-17T01:04:12.144Z,0
2019-02-17T01:05:20.213Z,0
2019-02-17T01:06:28.256Z,0
2019-02-17T01:07:36.296Z,0
2019-02-17T01:08:44.350Z,0
2019-02-17T01:09:52.399Z,0
2019-02-17T01:11:00.464Z,0
2019-02-17T01:12:08.518Z,0
2019-02-17T01:13:16.574Z,0
2019-02-17T01:14:24.655Z,0
2019-02-17T01:15:32.662Z,0
2019-02-17T01:16:40.716Z,0
2019-02-17T01:17:48.782Z,0
2019-02-17T01:18:56.835Z,0
2019-02-17T01:20:04.891Z,0
2019-02-17T01:21:12.943Z,0
2019-02-17T01:22:20.987Z,0
2019-02-17T01:23:29.032Z,0
2019-02-17T01:24:37.090Z,0
2019-02-17T01:25:45.139Z,0
2019-02-17T01:26:53.201Z,0
2019-02-17T01:28:01.246Z,0
2019-02-17T01:29:09.335Z,0
2019-02-17T01:30:17.353Z,0
2019-02-17T01:31:25.405Z,0
2019-02-17T01:32:33.452Z,0
2019-02-17T01:33:41.504Z,0
2019-02-17T01:34:49.562Z,0
2019-02-17T01:35:57.617Z,0
2019-02-17T01:37:05.677Z,0
2019-02-17T01:38:13.713Z,0
2019-02-17T01:39:21.747Z,0
2019-02-17T01:40:29.807Z,0
2019-02-17T01:41:37.863Z,0
2019-02-17T01:42:45.922Z,0
2019-02-17T01:43:53.983Z,0
2019-02-17T01:45:02.018Z,0
2019-02-17T01:46:10.076Z,0
2019-02-17T01:47:18.171Z,0
2019-02-17T01:48:26.186Z,0
2019-02-17T01:49:34.243Z,0
2019-02-17T01:50:42.290Z,0
2019-02-17T01:51:50.346Z,0
2019-02-17T01:52:58.402Z,0
2019-02-17T01:54:06.433Z,0
2019-02-17T01:55:14.485Z,0
2019-02-17T01:56:22.541Z,0
2019-02-17T01:57:30.662Z,0
2019-02-17T01:58:38.647Z,0
2019-02-17T01:59:46.699Z,0
2019-02-17T02:00:54.746Z,0
2019-02-17T02:02:02.811Z,0
2019-02-17T02:03:10.848Z,0
2019-02-17T02:04:18.910Z,0
2019-02-17T02:05:26.965Z,0
2019-02-17T02:06:35.025Z,0
2019-02-17T02:07:43.066Z,0
2019-02-17T02:08:51.117Z,0
2019-02-17T02:09:59.164Z,0
2019-02-17T02:11:07.222Z,0
2019-02-17T02:12:15.277Z,0
2019-02-17T02:13:23.341Z,0
2019-02-17T02:14:31.364Z,0
2019-02-17T02:15:39.422Z,0
2019-02-17T02:16:47.510Z,0
2019-02-17T02:17:55.533Z,0
2019-02-17T02:19:03.587Z,0
2019-02-17T02:20:11.909Z,0
2019-02-17T02:21:19.680Z,0
2019-02-17T02:22:27.734Z,0
2019-02-17T02:23:35.782Z,0
2019-02-17T02:24:43.846Z,0
2019-02-17T02:25:51.876Z,0
2019-02-17T02:26:59.946Z,0
2019-02-17T02:28:08.001Z,0
2019-02-17T02:29:16.040Z,0
2019-02-17T02:30:24.099Z,0
2019-02-17T02:31:32.130Z,0
2019-02-17T02:32:40.211Z,0
2019-02-17T02:33:48.247Z,0
2019-02-17T02:34:56.313Z,0
2019-02-17T02:36:04.364Z,0
2019-02-17T02:37:12.383Z,0
2019-02-17T02:38:20.477Z,0
2019-02-17T02:39:28.513Z,0
2019-02-17T02:40:36.561Z,0
2019-02-17T02:41:44.626Z,0
2019-02-17T02:42:52.659Z,0
2019-02-17T02:44:00.730Z,0
2019-02-17T02:45:08.776Z,0
2019-02-17T02:46:16.813Z,0
2019-02-17T02:47:24.872Z,0
2019-02-17T02:48:32.952Z,0
2019-02-17T02:49:40.994Z,0
2019-02-17T02:50:49.041Z,0
2019-02-17T02:51:57.083Z,0
2019-02-17T02:53:05.131Z,0
2019-02-17T02:54:13.182Z,0
2019-02-17T02:55:21.238Z,0
2019-02-17T02:56:29.292Z,0
2019-02-17T02:57:37.346Z,0
2019-02-17T02:58:45.387Z,0
2019-02-17T02:59:53.443Z,0
2019-02-17T03:01:01.486Z,0
2019-02-17T03:02:09.543Z,0
2019-02-17T03:03:17.610Z,0
2019-02-17T03:04:25.655Z,0
2019-02-17T03:05:33.757Z,0
2019-02-17T03:06:41.743Z,0
2019-02-17T03:07:49.807Z,0
2019-02-17T03:08:57.852Z,0
2019-02-17T03:10:05.930Z,0
2019-02-17T03:11:13.968Z,0
2019-02-17T03:12:21.993Z,0
2019-02-17T03:13:30.071Z,0
2019-02-17T03:14:38.125Z,0
2019-02-17T03:15:46.168Z,0
2019-02-17T03:16:54.224Z,0
2019-02-17T03:18:02.255Z,0
2019-02-17T03:19:10.321Z,0
2019-02-17T03:20:18.373Z,0
2019-02-17T03:21:26.439Z,0
2019-02-17T03:22:34.478Z,0
2019-02-17T03:23:42.525Z,0
2019-02-17T03:24:50.587Z,0
2019-02-17T03:25:58.626Z,0
2019-02-17T03:27:06.693Z,0
2019-02-17T03:28:14.737Z,0
2019-02-17T03:29:22.798Z,0
2019-02-17T03:30:30.837Z,0
2019-02-17T03:31:38.889Z,0
2019-02-17T03:32:46.941Z,0
2019-02-17T03:33:54.987Z,0
2019-02-17T03:35:03.052Z,0
2019-02-17T03:36:11.088Z,0
2019-02-17T03:37:19.164Z,0
2019-02-17T03:38:27.198Z,0
2019-02-17T03:39:35.252Z,0
2019-02-17T03:40:43.304Z,0
2019-02-17T03:41:51.346Z,0
2019-02-17T03:42:59.405Z,0
2019-02-17T03:44:07.460Z,0
2019-02-17T03:45:15.522Z,0
2019-02-17T03:46:23.562Z,0
2019-02-17T03:47:31.589Z,0
2019-02-17T03:48:39.677Z,0
2019-02-17T03:49:47.729Z,0
2019-02-17T03:50:55.804Z,0
2019-02-17T03:52:03.827Z,0
2019-02-17T03:53:11.846Z,0
2019-02-17T03:54:19.914Z,0
2019-02-17T03:55:27.985Z,0
2019-02-17T03:56:36.034Z,0
2019-02-17T03:57:44.076Z,0
2019-02-17T03:58:52.109Z,0
2019-02-17T04:00:00.374Z,0
2019-02-17T04:01:08.224Z,0
2019-02-17T04:02:16.286Z,0
2019-02-17T04:03:24.331Z,0
2019-02-17T04:04:32.366Z,0
2019-02-17T04:05:40.467Z,0
2019-02-17T04:06:48.487Z,0
2019-02-17T04:07:56.541Z,0
2019-02-17T04:09:04.597Z,0
2019-02-17T04:10:12.651Z,0
2019-02-17T04:11:20.686Z,0
2019-02-17T04:12:28.754Z,0
2019-02-17T04:13:36.800Z,0
2019-02-17T04:14:44.845Z,0
2019-02-17T04:15:52.899Z,0
2019-02-17T04:17:00.950Z,0
2019-02-17T04:18:09.058Z,0
2019-02-17T04:19:17.065Z,0
2019-02-17T04:20:25.105Z,0
2019-02-17T04:21:33.541Z,0
2019-02-17T04:22:41.215Z,0
2019-02-17T04:23:49.262Z,0
2019-02-17T04:24:57.320Z,0
2019-02-17T04:26:05.364Z,0
2019-02-17T04:27:13.426Z,0
2019-02-17T04:28:21.451Z,0
2019-02-17T04:29:29.517Z,0
2019-02-17T04:30:37.577Z,0
2019-02-17T04:31:45.618Z,0
2019-02-17T04:32:53.677Z,0
2019-02-17T04:34:01.766Z,0
2019-02-17T04:35:09.786Z,0
2019-02-17T04:36:17.825Z,0
2019-02-17T04:37:25.886Z,0
2019-02-17T04:38:33.934Z,0
2019-02-17T04:39:41.962Z,0
2019-02-17T04:40:50.040Z,0
2019-02-17T04:41:58.095Z,0
2019-02-17T04:43:06.130Z,0
2019-02-17T04:44:14.195Z,0
2019-02-17T04:45:22.221Z,0
2019-02-17T04:46:30.295Z,0
2019-02-17T04:47:38.348Z,0
2019-02-17T04:48:46.402Z,0
2019-02-17T04:49:54.451Z,0
2019-02-17T04:51:02.496Z,0
2019-02-17T04:52:10.552Z,0
2019-02-17T04:53:18.630Z,0
2019-02-17T04:54:26.652Z,0
2019-02-17T04:55:34.707Z,0
2019-02-17T04:56:42.754Z,0
2019-02-17T04:57:50.819Z,0
2019-02-17T04:58:58.857Z,0
2019-02-17T05:00:06.906Z,0
2019-02-17T05:01:14.959Z,0
2019-02-17T05:02:23.020Z,0
2019-02-17T05:03:31.065Z,0
2019-02-17T05:04:39.110Z,0
2019-02-17T05:05:47.175Z,0
2019-02-17T05:06:55.209Z,0
2019-02-17T05:08:03.273Z,0
2019-02-17T05:09:11.312Z,0
2019-02-17T05:10:19.379Z,0
2019-02-17T05:11:27.421Z,0
2019-02-17T05:12:35.473Z,0
2019-02-17T05:13:43.528Z,0
2019-02-17T05:14:51.582Z,0
2019-02-17T05:15:59.633Z,0
2019-02-17T05:17:07.678Z,0
2019-02-17T05:18:15.739Z,0
2019-02-17T05:19:23.785Z,0
2019-02-17T05:20:31.820Z,0
2019-02-17T05:21:39.890Z,0
2019-02-17T05:22:47.953Z,0
2019-02-17T05:23:55.996Z,0
2019-02-17T05:25:04.033Z,0
2019-02-17T05:26:12.061Z,0
2019-02-17T05:27:20.152Z,0
2019-02-17T05:28:28.228Z,0
2019-02-17T05:29:36.251Z,0
2019-02-17T05:30:52.043Z,0
2019-02-17T05:31:52.326Z,0
2019-02-17T05:33:00.410Z,0
2019-02-17T05:34:08.447Z,0
2019-02-17T05:35:16.525Z,0
2019-02-17T05:36:24.548Z,0
2019-02-17T05:37:32.601Z,0
2019-02-17T05:38:40.660Z,0
2019-02-17T05:39:48.704Z,0
2019-02-17T05:40:56.762Z,0
2019-02-17T05:42:04.816Z,0
2019-02-17T05:43:12.886Z,0
2019-02-17T05:44:20.912Z,0
2019-02-17T05:45:28.967Z,0
2019-02-17T05:46:37.020Z,0
2019-02-17T05:47:45.062Z,0
2019-02-17T05:48:53.114Z,0
2019-02-17T05:50:01.206Z,0
2019-02-17T05:51:09.218Z,0
2019-02-17T05:52:17.262Z,0
2019-02-17T05:53:25.326Z,0
2019-02-17T05:54:33.372Z,0
2019-02-17T05:55:41.410Z,0
2019-02-17T05:56:49.473Z,4
2019-02-17T05:57:57.538Z,0
2019-02-17T05:59:05.591Z,4
2019-02-17T06:00:13.630Z,4
2019-02-17T06:01:21.670Z,4
2019-02-17T06:02:29.737Z,4
2019-02-17T06:03:37.791Z,8
2019-02-17T06:04:45.833Z,8
2019-02-17T06:05:53.885Z,12
2019-02-17T06:07:01.913Z,16
2019-02-17T06:08:09.989Z,16
2019-02-17T06:09:18.039Z,20
2019-02-17T06:10:26.087Z,28
2019-02-17T06:11:34.136Z,32
2019-02-17T06:12:42.190Z,40
2019-02-17T06:13:50.241Z,48
2019-02-17T06:14:58.294Z,56
2019-02-17T06:16:06.360Z,68
2019-02-17T06:17:14.393Z,80
2019-02-17T06:18:22.490Z,96
2019-02-17T06:19:30.496Z,108
2019-02-17T06:20:38.551Z,124
2019-02-17T06:21:46.609Z,144
2019-02-17T06:22:54.660Z,164
2019-02-17T06:24:02.713Z,184
2019-02-17T06:25:10.767Z,208
2019-02-17T06:26:18.818Z,236
2019-02-17T06:27:26.860Z,268
2019-02-17T06:28:34.917Z,296
2019-02-17T06:29:42.966Z,324
2019-02-17T06:30:51.021Z,356
2019-02-17T06:31:59.056Z,392
2019-02-17T06:33:07.163Z,428
2019-02-17T06:34:15.174Z,464
2019-02-17T06:35:23.221Z,504
2019-02-17T06:36:31.274Z,544
2019-02-17T06:37:39.329Z,580
2019-02-17T06:38:47.369Z,624
2019-02-17T06:39:55.424Z,660
2019-02-17T06:41:03.488Z,704
2019-02-17T06:42:11.507Z,744
2019-02-17T06:43:19.578Z,784
2019-02-17T06:44:27.647Z,828
2019-02-17T06:45:35.684Z,872
2019-02-17T06:46:43.744Z,916
2019-02-17T06:47:51.783Z,952
2019-02-17T06:48:59.833Z,992
2019-02-17T06:50:07.892Z,1036
2019-02-17T06:51:15.949Z,1072
2019-02-17T06:52:23.997Z,1108
2019-02-17T06:53:32.031Z,1148
2019-02-17T06:54:40.095Z,1184
2019-02-17T06:55:48.146Z,1220
2019-02-17T06:56:56.196Z,1260
2019-02-17T06:58:04.243Z,1296
2019-02-17T06:59:12.297Z,1332
2019-02-17T07:00:20.357Z,1368
2019-02-17T07:01:28.406Z,1404
2019-02-17T07:02:36.444Z,1444
2019-02-17T07:03:44.502Z,1484
2019-02-17T07:04:52.582Z,1508
2019-02-17T07:06:00.596Z,1572
2019-02-17T07:07:08.670Z,1632
2019-02-17T07:08:16.778Z,1748
2019-02-17T07:09:24.766Z,2176
2019-02-17T07:10:32.804Z,2692
2019-02-17T07:11:40.882Z,3124
2019-02-17T07:12:48.922Z,3484
2019-02-17T07:13:56.969Z,4008
2019-02-17T07:15:05.018Z,4580
2019-02-17T07:16:13.084Z,4748
2019-02-17T07:17:21.103Z,4972
2019-02-17T07:18:29.176Z,5284
2019-02-17T07:19:37.221Z,5032
2019-02-17T07:20:45.275Z,4640
2019-02-17T07:21:53.342Z,4968
2019-02-17T07:23:01.407Z,5068
2019-02-17T07:24:09.454Z,4684
2019-02-17T07:25:17.488Z,4780
2019-02-17T07:26:25.562Z,5768
2019-02-17T07:27:33.594Z,5996
2019-02-17T07:28:41.647Z,5128
2019-02-17T07:29:49.750Z,2876
2019-02-17T07:30:57.768Z,3444
2019-02-17T07:32:05.821Z,3904
2019-02-17T07:33:13.864Z,3248
2019-02-17T07:34:21.902Z,3392
2019-02-17T07:35:30.007Z,4116
2019-02-17T07:36:38.070Z,6656
2019-02-17T07:37:46.097Z,8108
2019-02-17T07:38:54.154Z,8612
2019-02-17T07:40:02.197Z,8408
2019-02-17T07:41:10.265Z,8588
2019-02-17T07:42:18.301Z,6352
2019-02-17T07:43:26.350Z,5688
2019-02-17T07:44:34.410Z,6000
2019-02-17T07:45:42.471Z,6724
2019-02-17T07:46:50.522Z,6512
2019-02-17T07:47:58.574Z,6292
2019-02-17T07:49:06.634Z,7792
2019-02-17T07:50:14.689Z,7980
2019-02-17T07:51:22.744Z,7952
2019-02-17T07:52:31.155Z,10452
2019-02-17T07:53:38.877Z,11620
2019-02-17T07:54:46.919Z,10484
2019-02-17T07:55:54.977Z,8512
2019-02-17T07:57:03.026Z,6752
2019-02-17T07:58:11.066Z,3636
2019-02-17T07:59:19.152Z,2692
2019-02-17T08:00:27.190Z,2672
2019-02-17T08:01:44.565Z,2700
2019-02-17T08:02:43.290Z,2724
2019-02-17T08:03:51.337Z,2744
2019-02-17T08:04:59.408Z,2756
2019-02-17T08:06:07.470Z,2748
2019-02-17T08:07:15.528Z,2760
2019-02-17T08:08:23.628Z,2788
2019-02-17T08:09:31.636Z,2796
2019-02-17T08:10:40.105Z,2792
2019-02-17T08:11:47.749Z,2816
2019-02-17T08:12:55.785Z,2836
2019-02-17T08:14:03.851Z,2844
2019-02-17T08:15:11.910Z,2848
2019-02-17T08:16:19.943Z,2848
2019-02-17T08:17:27.999Z,2844
2019-02-17T08:18:36.067Z,2852
2019-02-17T08:19:44.123Z,2844
2019-02-17T08:20:52.158Z,2864
2019-02-17T08:22:00.231Z,2844
2019-02-17T08:23:08.290Z,2860
2019-02-17T08:24:16.373Z,2860
2019-02-17T08:25:24.664Z,2880
2019-02-17T08:26:32.743Z,2896
2019-02-17T08:27:40.529Z,2900
2019-02-17T08:28:48.579Z,2896
2019-02-17T08:29:56.622Z,2900
2019-02-17T08:31:04.769Z,2880
2019-02-17T08:32:12.724Z,2876
2019-02-17T08:33:20.775Z,2908
2019-02-17T08:34:28.950Z,2892
2019-02-17T08:35:36.980Z,2884
2019-02-17T08:36:45.026Z,2892
2019-02-17T08:37:52.999Z,2876
2019-02-17T08:39:01.070Z,2884
2019-02-17T08:40:09.647Z,2908
2019-02-17T08:41:17.508Z,2896
2019-02-17T08:42:25.387Z,2916
2019-02-17T08:43:33.573Z,2920
2019-02-17T08:44:41.336Z,2936
2019-02-17T08:45:49.580Z,2952
2019-02-17T08:46:57.464Z,2948
2019-02-17T08:48:05.488Z,2940
2019-02-17T08:49:13.560Z,2940
2019-02-17T08:50:21.601Z,2948
2019-02-17T08:51:29.687Z,2936
2019-02-17T08:52:37.721Z,2940
2019-02-17T08:53:45.783Z,2936
2019-02-17T08:54:53.871Z,2932
2019-02-17T08:56:01.887Z,2928
2019-02-17T08:57:09.950Z,2936
2019-02-17T08:58:18.015Z,2924
2019-02-17T08:59:26.067Z,2932
2019-02-17T09:00:34.138Z,2932
2019-02-17T09:01:42.162Z,2944
2019-02-17T09:02:50.229Z,2928
2019-02-17T09:03:58.291Z,2944
2019-02-17T09:05:06.353Z,2940
2019-02-17T09:06:14.405Z,2928
2019-02-17T09:07:22.474Z,2944
2019-02-17T09:08:30.520Z,2912
2019-02-17T09:09:38.565Z,2920
2019-02-17T09:10:46.618Z,2932
2019-02-17T09:11:54.692Z,2920
2019-02-17T09:13:02.744Z,2928
2019-02-17T09:14:10.784Z,2952
2019-02-17T09:15:18.833Z,2960
2019-02-17T09:16:26.896Z,2948
2019-02-17T09:17:34.973Z,2952
2019-02-17T09:18:43.023Z,2964
2019-02-17T09:19:51.093Z,2972
2019-02-17T09:20:59.189Z,2984
2019-02-17T09:22:07.188Z,2984
2019-02-17T09:23:15.251Z,2980
2019-02-17T09:24:23.301Z,2964
2019-02-17T09:25:31.341Z,2976
2019-02-17T09:26:39.407Z,2984
2019-02-17T09:27:47.513Z,2980
2019-02-17T09:28:55.525Z,2980
2019-02-17T09:30:03.597Z,2976
2019-02-17T09:31:11.625Z,2972
2019-02-17T09:32:19.696Z,2984
2019-02-17T09:33:27.765Z,2980
2019-02-17T09:34:35.816Z,2972
2019-02-17T09:35:43.909Z,2976
2019-02-17T09:36:51.893Z,2980
2019-02-17T09:37:59.974Z,2968
2019-02-17T09:39:08.120Z,2980
2019-02-17T09:40:16.085Z,2996
2019-02-17T09:41:24.164Z,2976
2019-02-17T09:42:32.214Z,2976
2019-02-17T09:43:40.257Z,2972
2019-02-17T09:44:48.446Z,2992
2019-02-17T09:45:56.366Z,3004
2019-02-17T09:47:04.539Z,2996
2019-02-17T09:48:12.563Z,2996
2019-02-17T09:49:20.547Z,2996
2019-02-17T09:50:28.928Z,3032
2019-02-17T09:51:37.423Z,3040
2019-02-17T09:52:44.721Z,3048
2019-02-17T09:53:52.796Z,3016
2019-02-17T09:55:00.834Z,3028
2019-02-17T09:56:08.889Z,3036
2019-02-17T09:57:16.957Z,3032
2019-02-17T09:58:25.025Z,3036
2019-02-17T09:59:33.072Z,3024
2019-02-17T10:00:41.162Z,3024
2019-02-17T10:01:49.229Z,3028
2019-02-17T10:02:57.256Z,3016
2019-02-17T10:04:05.299Z,3032
2019-02-17T10:05:13.372Z,3048
2019-02-17T10:06:21.413Z,3044
2019-02-17T10:07:29.483Z,3064
2019-02-17T10:08:37.526Z,3052
2019-02-17T10:09:45.579Z,3032
2019-02-17T10:10:53.654Z,3048
2019-02-17T10:12:01.685Z,3060
2019-02-17T10:13:09.764Z,3048
2019-02-17T10:14:17.828Z,3052
2019-02-17T10:15:25.882Z,3056
2019-02-17T10:16:33.977Z,3060
2019-02-17T10:17:41.986Z,3056
2019-02-17T10:18:50.052Z,3040
2019-02-17T10:19:58.117Z,3060
2019-02-17T10:21:06.171Z,3060
2019-02-17T10:22:14.252Z,3064
2019-02-17T10:23:22.279Z,3068
2019-02-17T10:24:30.347Z,3044
2019-02-17T10:25:38.393Z,3064
2019-02-17T10:26:46.461Z,3044
2019-02-17T10:27:54.529Z,3048
2019-02-17T10:29:02.600Z,3040
2019-02-17T10:30:10.661Z,3056
2019-02-17T10:31:18.696Z,3052
2019-02-17T10:32:35.893Z,3052
2019-02-17T10:33:34.816Z,3068
2019-02-17T10:34:42.886Z,3048
2019-02-17T10:35:50.948Z,3068
2019-02-17T10:36:58.993Z,3064
2019-02-17T10:38:07.094Z,3064
2019-02-17T10:39:15.090Z,3084
2019-02-17T10:40:23.164Z,3084
2019-02-17T10:41:31.224Z,3080
2019-02-17T10:42:39.298Z,3064
2019-02-17T10:43:47.343Z,3072
2019-02-17T10:44:55.402Z,3068
2019-02-17T10:46:03.467Z,3068
2019-02-17T10:47:11.506Z,3056
2019-02-17T10:48:19.588Z,3056
2019-02-17T10:49:27.646Z,3056
2019-02-17T10:50:35.698Z,3052
2019-02-17T10:51:43.805Z,3048
2019-02-17T10:52:51.855Z,3044
2019-02-17T10:53:59.878Z,3028
2019-02-17T10:55:07.941Z,3016
2019-02-17T10:56:16.004Z,3012
2019-02-17T10:57:24.068Z,3008
2019-02-17T10:58:32.098Z,3004
2019-02-17T10:59:40.181Z,3000
2019-02-17T11:00:48.267Z,3008
2019-02-17T11:01:56.295Z,3012
2019-02-17T11:03:04.356Z,2996
2019-02-17T11:04:12.405Z,3008
2019-02-17T11:05:20.477Z,3008
2019-02-17T11:06:28.573Z,3004
2019-02-17T11:07:36.597Z,3000
2019-02-17T11:08:44.654Z,3000
2019-02-17T11:09:52.704Z,2996
2019-02-17T11:11:00.779Z,2996
2019-02-17T11:12:08.837Z,2992
2019-02-17T11:13:16.901Z,2992
2019-02-17T11:14:24.962Z,2992
2019-02-17T11:15:33.033Z,2988
2019-02-17T11:16:41.085Z,2992
2019-02-17T11:17:49.148Z,2988
2019-02-17T11:18:57.191Z,2980
2019-02-17T11:20:05.259Z,2984
2019-02-17T11:21:13.365Z,2988
2019-02-17T11:22:23.232Z,2980
2019-02-17T11:23:29.438Z,2984
2019-02-17T11:24:37.492Z,2980
2019-02-17T11:25:45.573Z,2976
2019-02-17T11:26:53.622Z,2976
2019-02-17T11:28:01.671Z,2972
2019-02-17T11:29:09.732Z,2972
2019-02-17T11:30:17.795Z,2972
2019-02-17T11:31:25.857Z,2972
2019-02-17T11:32:33.924Z,2964
2019-02-17T11:33:41.961Z,2964
2019-02-17T11:34:50.039Z,2960
2019-02-17T11:35:58.116Z,2960
2019-02-17T11:37:06.159Z,2960
2019-02-17T11:38:14.221Z,2952
2019-02-17T11:39:22.258Z,2952
2019-02-17T11:40:30.345Z,2956
2019-02-17T11:41:38.394Z,2944
2019-02-17T11:42:46.468Z,2932
2019-02-17T11:43:54.527Z,2932
2019-02-17T11:45:02.566Z,2928
2019-02-17T11:46:10.671Z,2928
2019-02-17T11:47:18.704Z,2928
2019-02-17T11:48:26.781Z,2928
2019-02-17T11:49:34.867Z,2920
2019-02-17T11:50:42.883Z,2916
2019-02-17T11:51:50.949Z,2908
2019-02-17T11:52:58.995Z,2904
2019-02-17T11:54:07.060Z,2900
2019-02-17T11:55:15.128Z,2900
2019-02-17T11:56:23.188Z,2888
2019-02-17T11:57:31.268Z,2892
2019-02-17T11:58:39.292Z,2888
2019-02-17T11:59:47.367Z,2872
2019-02-17T12:00:55.417Z,2864
2019-02-17T12:02:03.493Z,2856
2019-02-17T12:03:11.542Z,2860
2019-02-17T12:04:19.652Z,2860
2019-02-17T12:05:27.668Z,2856
2019-02-17T12:06:35.728Z,2844
2019-02-17T12:07:43.795Z,2828
2019-02-17T12:08:51.872Z,2832
2019-02-17T12:09:59.920Z,2836
2019-02-17T12:11:08.002Z,2828
2019-02-17T12:12:16.036Z,2828
2019-02-17T12:13:24.100Z,2820
2019-02-17T12:14:32.131Z,2824
2019-02-17T12:15:40.206Z,2812
2019-02-17T12:16:48.282Z,2804
2019-02-17T12:17:56.332Z,2792
2019-02-17T12:19:04.391Z,2788
2019-02-17T12:20:12.466Z,2784
2019-02-17T12:21:20.495Z,2772
2019-02-17T12:22:28.587Z,2760
2019-02-17T12:23:36.639Z,2768
2019-02-17T12:24:44.692Z,2772
2019-02-17T12:25:52.764Z,2768
2019-02-17T12:27:00.825Z,2768
2019-02-17T12:28:08.891Z,2764
2019-02-17T12:29:16.941Z,2764
2019-02-17T12:30:25.002Z,2760
2019-02-17T12:31:33.078Z,2756
2019-02-17T12:32:41.120Z,2736
2019-02-17T12:33:49.237Z,2720
2019-02-17T12:34:57.254Z,2716
2019-02-17T12:36:05.298Z,2728
2019-02-17T12:37:13.368Z,2740
2019-02-17T12:38:21.433Z,2736
2019-02-17T12:39:29.671Z,2728
2019-02-17T12:40:37.557Z,2728
2019-02-17T12:41:45.593Z,2724
2019-02-17T12:42:53.690Z,2716
2019-02-17T12:44:01.720Z,2712
2019-02-17T12:45:09.788Z,2708
2019-02-17T12:46:17.858Z,2704
2019-02-17T12:47:26.010Z,2696
2019-02-17T12:48:33.976Z,2696
2019-02-17T12:49:42.024Z,2688
2019-02-17T12:50:50.087Z,2692
2019-02-17T12:51:58.158Z,2684
2019-02-17T12:53:06.264Z,2680
2019-02-17T12:54:14.281Z,2676
2019-02-17T12:55:22.341Z,2680
2019-02-17T12:56:30.401Z,2672
2019-02-17T12:57:38.457Z,2676
2019-02-17T12:58:46.585Z,2672
2019-02-17T12:59:54.582Z,2668
2019-02-17T13:01:02.649Z,2676
2019-02-17T13:02:10.712Z,2676
2019-02-17T13:03:27.943Z,2680
2019-02-17T13:04:26.875Z,2680
2019-02-17T13:05:34.886Z,2684
2019-02-17T13:06:42.991Z,2676
2019-02-17T13:07:51.069Z,2672
2019-02-17T13:08:59.071Z,2656
2019-02-17T13:10:07.129Z,2656
2019-02-17T13:11:15.203Z,2648
2019-02-17T13:12:23.258Z,2644
2019-02-17T13:13:31.313Z,2640
2019-02-17T13:14:39.390Z,2632
2019-02-17T13:15:47.442Z,2632
2019-02-17T13:16:55.503Z,2632
2019-02-17T13:18:03.565Z,2632
2019-02-17T13:19:11.598Z,2632
2019-02-17T13:20:19.693Z,2624
2019-02-17T13:21:27.741Z,2620
2019-02-17T13:22:35.801Z,2616
2019-02-17T13:23:43.871Z,2600
2019-02-17T13:24:51.911Z,2600
2019-02-17T13:25:59.987Z,2600
2019-02-17T13:27:08.128Z,2596
2019-02-17T13:28:16.118Z,2592
2019-02-17T13:29:24.180Z,2580
2019-02-17T13:30:32.210Z,2568
2019-02-17T13:31:40.295Z,2580
2019-02-17T13:32:48.348Z,2552
2019-02-17T13:33:56.422Z,2548
2019-02-17T13:35:04.477Z,2520
2019-02-17T13:36:12.528Z,2524
2019-02-17T13:37:20.605Z,2560
2019-02-17T13:38:29.273Z,2564
2019-02-17T13:39:36.732Z,2556
2019-02-17T13:40:44.803Z,2564
2019-02-17T13:41:52.850Z,2560
2019-02-17T13:43:00.919Z,2556
2019-02-17T13:44:08.969Z,2548
2019-02-17T13:45:17.037Z,2548
2019-02-17T13:46:25.093Z,2548
2019-02-17T13:47:33.154Z,2540
2019-02-17T13:48:41.217Z,2536
2019-02-17T13:49:49.283Z,2532
2019-02-17T13:50:57.349Z,2528
2019-02-17T13:52:05.398Z,2524
2019-02-17T13:53:13.465Z,2524
2019-02-17T13:54:21.501Z,2520
2019-02-17T13:55:29.576Z,2520
2019-02-17T13:56:37.650Z,2524
2019-02-17T13:57:46.035Z,2520
2019-02-17T13:58:53.776Z,2520
2019-02-17T14:00:01.799Z,2520
2019-02-17T14:01:09.891Z,2508
2019-02-17T14:02:17.952Z,2504
2019-02-17T14:03:26.008Z,2500
2019-02-17T14:04:34.078Z,2496
2019-02-17T14:05:42.113Z,2492
2019-02-17T14:06:50.196Z,2476
2019-02-17T14:07:58.256Z,2472
2019-02-17T14:09:06.304Z,2464
2019-02-17T14:10:14.383Z,2460
2019-02-17T14:11:22.429Z,2464
2019-02-17T14:12:30.589Z,2460
2019-02-17T14:13:38.565Z,2456
2019-02-17T14:14:46.619Z,2456
2019-02-17T14:15:54.696Z,2452
2019-02-17T14:17:02.747Z,2448
2019-02-17T14:18:10.794Z,2440
2019-02-17T14:19:18.853Z,2436
2019-02-17T14:20:26.965Z,2432
2019-02-17T14:21:34.993Z,2424
2019-02-17T14:22:43.071Z,2412
2019-02-17T14:23:51.109Z,2412
2019-02-17T14:24:59.179Z,2412
2019-02-17T14:26:07.242Z,2404
2019-02-17T14:27:15.298Z,2396
2019-02-17T14:28:23.359Z,2392
2019-02-17T14:29:31.411Z,2388
2019-02-17T14:30:39.492Z,2384
2019-02-17T14:31:47.579Z,2384
2019-02-17T14:32:55.599Z,2380
2019-02-17T14:34:03.671Z,2376
2019-02-17T14:35:11.695Z,2368
2019-02-17T14:36:19.773Z,2368
2019-02-17T14:37:27.843Z,2368
2019-02-17T14:38:35.893Z,2356
2019-02-17T14:39:43.965Z,2356
2019-02-17T14:40:52.003Z,2352
2019-02-17T14:42:00.094Z,2352
2019-02-17T14:43:08.191Z,2352
2019-02-17T14:44:16.199Z,2344
2019-02-17T14:45:24.273Z,2340
2019-02-17T14:46:32.330Z,2340
2019-02-17T14:47:40.394Z,2328
2019-02-17T14:48:48.465Z,2324
2019-02-17T14:49:56.547Z,2320
2019-02-17T14:51:04.578Z,2320
2019-02-17T14:52:12.645Z,2312
2019-02-17T14:53:20.697Z,2308
2019-02-17T14:54:28.768Z,2300
2019-02-17T14:55:36.808Z,2288
2019-02-17T14:56:44.943Z,2280
2019-02-17T14:57:52.950Z,2272
2019-02-17T14:59:02.492Z,2260
2019-02-17T15:00:09.093Z,2256
2019-02-17T15:01:17.133Z,2248
2019-02-17T15:02:25.198Z,2240
2019-02-17T15:03:33.252Z,2232
2019-02-17T15:04:41.289Z,2228
2019-02-17T15:05:49.379Z,2220
2019-02-17T15:06:57.441Z,2216
2019-02-17T15:08:05.484Z,2212
2019-02-17T15:09:13.557Z,2204
2019-02-17T15:10:21.606Z,2196
2019-02-17T15:11:29.691Z,2188
2019-02-17T15:12:37.742Z,2184
2019-02-17T15:13:45.806Z,2184
2019-02-17T15:14:53.864Z,2192
2019-02-17T15:16:01.903Z,2204
2019-02-17T15:17:09.991Z,2216
2019-02-17T15:18:18.047Z,2212
2019-02-17T15:19:26.088Z,2176
2019-02-17T15:20:34.169Z,2120
2019-02-17T15:21:42.212Z,2088
2019-02-17T15:22:50.295Z,2068
2019-02-17T15:23:58.344Z,2048
2019-02-17T15:25:07.470Z,2032
2019-02-17T15:26:14.465Z,2012
2019-02-17T15:27:22.536Z,1980
2019-02-17T15:28:30.641Z,1956
2019-02-17T15:29:38.660Z,1936
2019-02-17T15:30:46.720Z,1920
2019-02-17T15:31:54.786Z,1896
2019-02-17T15:33:04.226Z,1876
2019-02-17T15:34:18.330Z,1852
2019-02-17T15:35:18.954Z,1824
2019-02-17T15:36:27.005Z,1800
2019-02-17T15:37:35.083Z,1776
2019-02-17T15:38:43.141Z,1760
2019-02-17T15:39:51.196Z,1740
2019-02-17T15:40:59.249Z,1720
2019-02-17T15:42:07.315Z,1704
2019-02-17T15:43:15.376Z,1688
2019-02-17T15:44:23.436Z,1676